Time;durP1;ratioP1;P1;durP2;ratioP2;P2;SDS_P1;SDS_P2;PMS_P1;PMS_P2;Temp;Humidity;BMP_temperature;BMP_pressure;BME280_temperature;BME280_humidity;BME280_pressure;Samples;Min_cycle;Max_cycle;Signal;HPM_P1;HPM_P2
2023/01/14 00:02:18;;;;;;;3.20;1.25;;;23.80;99.90;;;;;;5075946;28;20280;-84
2023/01/14 00:04:49;;;;;;;1.88;1.10;;;23.90;99.90;;;;;;5074973;28;20560;-85
2023/01/14 00:07:20;;;;;;;4.88;1.40;;;23.80;99.90;;;;;;5076061;28;20550;-84
2023/01/14 00:09:51;;;;;;;4.95;1.10;;;23.60;99.90;;;;;;5076061;28;20192;-84
2023/01/14 00:12:25;;;;;;;5.63;1.10;;;23.30;99.90;;;;;;5075936;28;20280;-85
2023/01/14 00:14:56;;;;;;;3.10;1.02;;;23.10;99.90;;;;;;5075667;28;20192;-82
2023/01/14 00:17:30;;;;;;;3.20;1.08;;;23.30;99.90;;;;;;5075846;28;20189;-83
2023/01/14 00:20:01;;;;;;;3.58;1.23;;;23.20;99.90;;;;;;5076048;28;20304;-84
2023/01/14 00:22:33;;;;;;;2.72;1.00;;;23.20;99.90;;;;;;5075763;28;20185;-82
2023/01/14 00:25:04;;;;;;;3.67;1.10;;;23.10;99.90;;;;;;5075488;28;20260;-85
2023/01/14 00:27:37;;;;;;;4.68;1.33;;;23.10;99.90;;;;;;5075589;28;20189;-83
2023/01/14 00:30:09;;;;;;;7.13;1.10;;;23.00;99.90;;;;;;5075480;28;20261;-83
2023/01/14 00:32:40;;;;;;;4.30;1.08;;;23.00;99.90;;;;;;5075202;28;20648;-81
2023/01/14 00:35:11;;;;;;;2.72;1.02;;;23.20;99.90;;;;;;5075515;28;20220;-83
2023/01/14 00:37:42;;;;;;;4.50;1.10;;;23.30;99.90;;;;;;5075812;28;20195;-84
2023/01/14 00:40:14;;;;;;;4.63;1.45;;;23.60;99.90;;;;;;5075612;28;20319;-79
2023/01/14 00:42:47;;;;;;;2.47;1.08;;;24.10;99.90;;;;;;5075360;28;20276;-80
2023/01/14 00:45:18;;;;;;;5.50;1.52;;;24.50;99.90;;;;;;5075199;28;20284;-80
2023/01/14 00:47:49;;;;;;;4.70;0.95;;;24.50;99.90;;;;;;5075240;28;20221;-75
2023/01/14 00:50:20;;;;;;;2.55;0.60;;;24.70;99.90;;;;;;5075209;28;20284;-79
2023/01/14 00:52:51;;;;;;;2.15;0.60;;;24.90;99.90;;;;;;5075161;28;20185;-82
2023/01/14 00:55:22;;;;;;;2.20;0.77;;;25.10;99.90;;;;;;5075083;28;20228;-83
2023/01/14 00:57:55;;;;;;;3.40;0.77;;;25.20;99.90;;;;;;5075065;28;20197;-79
2023/01/14 01:00:26;;;;;;;0.90;0.70;;;25.40;99.90;;;;;;5074884;28;20755;-78
2023/01/14 01:02:57;;;;;;;2.00;0.80;;;25.40;99.90;;;;;;5074922;28;20224;-78
2023/01/14 01:05:28;;;;;;;3.05;0.93;;;25.30;99.90;;;;;;5074853;28;20532;-79
2023/01/14 01:07:59;;;;;;;1.77;0.80;;;25.30;99.90;;;;;;5074887;28;20235;-78
2023/01/14 01:10:30;;;;;;;2.53;0.63;;;25.20;99.90;;;;;;5074810;28;20185;-81
2023/01/14 01:13:03;;;;;;;2.25;0.82;;;25.10;99.90;;;;;;5074567;28;20276;-80
2023/01/14 01:15:37;;;;;;;1.75;0.40;;;25.00;99.90;;;;;;5074452;28;20666;-79
2023/01/14 01:18:08;;;;;;;1.65;0.60;;;24.80;99.90;;;;;;5074897;28;20269;-83
2023/01/14 01:20:39;;;;;;;1.83;0.60;;;24.70;99.90;;;;;;5074579;28;20221;-78
2023/01/14 01:23:11;;;;;;;2.80;0.45;;;24.70;99.90;;;;;;5074866;28;20283;-82
2023/01/14 01:25:43;;;;;;;1.48;0.57;;;24.60;99.90;;;;;;5074322;28;20597;-81
2023/01/14 01:28:15;;;;;;;0.95;0.50;;;24.60;99.90;;;;;;5074313;28;20612;-82
2023/01/14 01:30:46;;;;;;;1.83;0.55;;;24.60;99.90;;;;;;5074312;28;20280;-81
2023/01/14 01:33:17;;;;;;;1.73;0.63;;;24.70;99.90;;;;;;5074623;28;20229;-78
2023/01/14 01:35:49;;;;;;;1.20;0.40;;;24.90;99.90;;;;;;5074218;28;20231;-76
2023/01/14 01:38:20;;;;;;;2.42;0.40;;;25.00;99.90;;;;;;5074167;28;20311;-78
2023/01/14 01:40:50;;;;;;;2.22;0.60;;;24.90;99.90;;;;;;5074092;28;20300;-79
2023/01/14 01:43:26;;;;;;;1.20;0.55;;;25.00;99.90;;;;;;5074269;28;20276;-78
2023/01/14 01:45:58;;;;;;;2.10;0.60;;;25.10;99.90;;;;;;5074048;28;20189;-81
2023/01/14 01:48:32;;;;;;;2.38;0.60;;;25.40;99.90;;;;;;5073917;28;20185;-79
2023/01/14 01:51:06;;;;;;;2.05;0.68;;;25.80;99.90;;;;;;5074015;28;20192;-79
2023/01/14 01:53:41;;;;;;;2.03;0.50;;;26.00;99.90;;;;;;5074002;28;20726;-81
2023/01/14 01:56:15;;;;;;;2.97;0.70;;;26.00;99.90;;;;;;5073669;28;20189;-78
2023/01/14 01:58:49;;;;;;;3.67;0.60;;;26.10;99.90;;;;;;5073800;28;20216;-76
2023/01/14 02:01:20;;;;;;;5.45;0.70;;;26.10;99.90;;;;;;5083837;28;20746;-80
2023/01/14 02:03:52;;;;;;;2.88;0.70;;;25.90;99.90;;;;;;5068681;28;20196;-83
2023/01/14 02:06:24;;;;;;;1.90;0.63;;;25.80;99.90;;;;;;5070412;28;20199;-80
2023/01/14 02:08:56;;;;;;;3.22;0.90;;;26.10;99.90;;;;;;5054051;28;20189;-78
2023/01/14 02:11:49;;;;;;;1.88;0.68;;;26.40;99.90;;;;;;5066674;28;20656;-80
2023/01/14 02:14:35;;;;;;;1.08;0.70;;;26.30;99.90;;;;;;5054983;28;20287;-79
2023/01/14 02:17:15;;;;;;;4.50;1.10;;;26.30;99.90;;;;;;5069824;28;20275;-81
2023/01/14 02:20:14;;;;;;;1.90;0.50;;;26.20;99.90;;;;;;5056625;28;20578;-82
2023/01/14 02:23:15;;;;;;;2.00;0.80;;;26.20;99.90;;;;;;5071036;28;20193;-82
2023/01/14 02:26:22;;;;;;;1.75;0.57;;;26.60;99.90;;;;;;5060573;28;20225;-77
2023/01/14 02:29:11;;;;;;;3.47;0.60;;;26.40;99.90;;;;;;5060960;28;20207;-77
2023/01/14 02:31:49;;;;;;;2.28;0.60;;;26.30;99.90;;;;;;5073356;28;20711;-83
2023/01/14 02:34:26;;;;;;;4.00;0.90;;;26.10;99.90;;;;;;5067201;28;20196;-80
2023/01/14 02:37:02;;;;;;;2.60;0.77;;;26.20;99.90;;;;;;5055824;28;20633;-82
2023/01/14 02:39:41;;;;;;;1.88;0.70;;;26.40;99.90;;;;;;5056988;28;20308;-81
2023/01/14 02:45:10;;;;;;;3.00;0.93;;;26.10;99.90;;;;;;5058766;28;20575;-83
2023/01/14 02:47:44;;;;;;;3.03;0.60;;;26.20;99.90;;;;;;5059747;28;20193;-82
2023/01/14 02:50:17;;;;;;;5.20;0.80;;;26.40;99.90;;;;;;5062177;28;20219;-78
2023/01/14 02:52:48;;;;;;;4.22;0.90;;;26.50;99.90;;;;;;5058714;28;20193;-81
2023/01/14 02:55:32;;;;;;;3.85;0.85;;;26.50;99.90;;;;;;5052807;28;20193;-82
2023/01/14 02:58:27;;;;;;;3.50;0.70;;;26.40;99.90;;;;;;5069692;28;20279;-82
2023/01/14 03:01:12;;;;;;;3.20;0.77;;;26.20;99.90;;;;;;5068283;28;20679;-83
2023/01/14 03:03:58;;;;;;;5.78;0.98;;;26.20;99.90;;;;;;5066765;28;20201;-79
2023/01/14 03:06:35;;;;;;;3.67;0.88;;;26.30;99.90;;;;;;5073371;28;20272;-77
2023/01/14 03:09:11;;;;;;;3.10;0.80;;;26.20;99.90;;;;;;5072863;28;20193;-82
2023/01/14 03:11:46;;;;;;;2.80;0.85;;;26.40;99.90;;;;;;5073139;28;20275;-83
2023/01/14 03:14:26;;;;;;;5.50;0.80;;;26.60;99.90;;;;;;5072802;28;20188;-83
2023/01/14 03:17:03;;;;;;;4.10;0.70;;;26.70;99.90;;;;;;5072937;28;20276;-82
2023/01/14 03:19:41;;;;;;;2.67;0.60;;;26.60;99.90;;;;;;5072947;28;20707;-79
2023/01/14 03:22:12;;;;;;;2.05;0.90;;;26.50;99.90;;;;;;5072919;28;20220;-83
2023/01/14 03:24:47;;;;;;;5.10;0.70;;;26.20;99.90;;;;;;5072501;28;20250;-80
2023/01/14 03:27:23;;;;;;;5.55;0.73;;;26.30;99.90;;;;;;5072826;28;20188;-80
2023/01/14 03:29:58;;;;;;;3.65;0.60;;;26.20;99.90;;;;;;5073177;28;20193;-84
2023/01/14 03:32:33;;;;;;;5.25;0.90;;;26.10;99.90;;;;;;5072705;28;20551;-82
2023/01/14 03:35:10;;;;;;;3.63;0.82;;;26.10;99.90;;;;;;5072646;28;20192;-77
2023/01/14 03:37:46;;;;;;;1.95;0.60;;;26.30;99.90;;;;;;5072867;28;20279;-79
2023/01/14 03:40:20;;;;;;;3.47;0.85;;;26.40;99.90;;;;;;5075272;28;20244;-83
2023/01/14 03:42:55;;;;;;;2.97;0.60;;;26.50;99.90;;;;;;5076762;28;20280;-81
2023/01/14 03:45:32;;;;;;;3.72;0.80;;;26.50;99.90;;;;;;5076341;28;20200;-81
2023/01/14 03:48:03;;;;;;;2.90;0.70;;;26.40;99.90;;;;;;5074290;28;20588;-83
2023/01/14 03:50:44;;;;;;;2.92;0.60;;;26.20;99.90;;;;;;5066210;28;20205;-81
2023/01/14 03:53:21;;;;;;;2.38;0.70;;;26.20;99.90;;;;;;5076173;28;20728;-81
2023/01/14 03:56:01;;;;;;;3.28;0.60;;;26.40;99.90;;;;;;5075598;28;20207;-81
2023/01/14 03:58:40;;;;;;;3.38;0.80;;;26.60;99.90;;;;;;5075389;28;20193;-77
2023/01/14 04:01:15;;;;;;;1.48;0.60;;;26.50;99.90;;;;;;5076083;28;20219;-83
2023/01/14 04:03:47;;;;;;;4.35;0.70;;;26.40;99.90;;;;;;5058602;28;20203;-82
2023/01/14 04:06:20;;;;;;;2.83;0.50;;;26.40;99.90;;;;;;5058699;28;20201;-81
2023/01/14 04:08:51;;;;;;;3.80;0.75;;;26.20;99.90;;;;;;5076044;28;20189;-78
2023/01/14 04:11:22;;;;;;;2.67;0.70;;;26.20;99.90;;;;;;5075974;28;20193;-81
2023/01/14 04:16:40;;;;;;;3.58;0.80;;;26.30;99.90;;;;;;5064430;28;20290;-82
2023/01/14 04:19:11;;;;;;;4.13;0.57;;;26.40;99.90;;;;;;5065981;28;20199;-81
2023/01/14 04:21:44;;;;;;;4.20;0.80;;;26.30;99.90;;;;;;5066418;28;20220;-83
2023/01/14 04:24:14;;;;;;;2.40;0.63;;;26.30;99.90;;;;;;5055793;28;20275;-76
2023/01/14 04:26:45;;;;;;;3.28;0.47;;;26.40;99.90;;;;;;5056298;28;20182;-81
2023/01/14 04:29:17;;;;;;;3.17;0.70;;;26.20;99.90;;;;;;5068548;28;20279;-77
2023/01/14 04:31:48;;;;;;;4.13;0.60;;;26.20;99.90;;;;;;5057733;28;20563;-82
2023/01/14 04:34:19;;;;;;;2.55;0.60;;;26.20;99.90;;;;;;5070654;28;20193;-78
2023/01/14 04:36:51;;;;;;;4.32;0.70;;;25.90;99.90;;;;;;5060855;28;20284;-82
2023/01/14 04:39:23;;;;;;;2.47;0.80;;;25.80;99.90;;;;;;5065885;28;20299;-82
2023/01/14 04:44:40;;;;;;;4.25;0.80;;;25.90;99.90;;;;;;5056248;28;20208;-79
2023/01/14 04:47:11;;;;;;;4.43;0.70;;;25.90;99.90;;;;;;5060976;28;20281;-81
2023/01/14 04:49:42;;;;;;;3.38;0.52;;;25.70;99.90;;;;;;5061730;28;20204;-82
2023/01/14 04:52:15;;;;;;;3.85;0.75;;;25.70;99.90;;;;;;5062433;28;20202;-78
2023/01/14 04:54:46;;;;;;;4.15;0.50;;;25.50;99.90;;;;;;5055099;28;20194;-79
2023/01/14 04:57:17;;;;;;;2.75;0.60;;;25.60;99.90;;;;;;5055820;28;20209;-85
2023/01/14 04:59:47;;;;;;;6.80;0.95;;;25.70;99.90;;;;;;5059616;28;20200;-79
2023/01/14 05:02:18;;;;;;;2.95;0.63;;;25.80;99.90;;;;;;5056050;28;20209;-79
2023/01/14 05:04:49;;;;;;;4.00;0.70;;;25.80;99.90;;;;;;5057380;28;20657;-79
2023/01/14 05:07:22;;;;;;;2.33;0.60;;;25.80;99.90;;;;;;5060922;28;20280;-80
2023/01/14 05:09:53;;;;;;;2.45;0.70;;;25.90;99.90;;;;;;5056746;28;20193;-79
2023/01/14 05:12:24;;;;;;;2.00;0.50;;;25.90;99.90;;;;;;5054855;28;20196;-80
2023/01/14 05:14:55;;;;;;;2.83;0.73;;;25.90;99.90;;;;;;5056905;28;20201;-81
2023/01/14 05:17:26;;;;;;;1.70;0.50;;;25.90;99.90;;;;;;5055025;28;20216;-78
2023/01/14 05:19:57;;;;;;;4.20;0.70;;;25.80;99.90;;;;;;5073345;28;20297;-83
2023/01/14 05:22:29;;;;;;;1.85;0.60;;;25.80;99.90;;;;;;5062261;28;20219;-81
2023/01/14 05:25:00;;;;;;;3.80;0.75;;;25.90;99.90;;;;;;5081428;28;20240;-81
2023/01/14 05:27:31;;;;;;;3.10;0.50;;;25.90;99.90;;;;;;5054825;28;20189;-81
2023/01/14 05:30:02;;;;;;;4.20;0.68;;;25.70;99.90;;;;;;5062439;28;20198;-83
2023/01/14 05:32:33;;;;;;;4.15;0.60;;;25.80;99.90;;;;;;5064974;28;20287;-84
2023/01/14 05:35:04;;;;;;;3.45;0.88;;;25.90;99.90;;;;;;5056707;28;20197;-81
2023/01/14 05:37:38;;;;;;;2.92;0.70;;;25.80;99.90;;;;;;5086560;28;20590;-78
2023/01/14 05:40:10;;;;;;;1.77;0.60;;;25.70;99.90;;;;;;5077118;28;20193;-83
2023/01/14 05:46:16;;;;;;;4.90;0.63;;;25.60;99.90;;;;;;5074209;28;20195;-78
2023/01/14 05:56:12;;;;;;;6.25;1.02;;;25.50;99.90;;;;;;5061641;28;20201;-81
2023/01/14 05:58:43;;;;;;;6.75;0.70;;;25.50;99.90;;;;;;5053957;28;20200;-81
2023/01/14 06:55:21;;;;;;;2.83;0.70;;;25.10;99.90;;;;;;4819558;29;20284;-81
2023/01/14 06:57:52;;;;;;;3.72;0.88;;;25.00;99.90;;;;;;4881480;29;20225;-83
2023/01/14 07:00:23;;;;;;;4.15;1.05;;;25.00;99.90;;;;;;4906934;29;20588;-78
2023/01/14 07:03:27;;;;;;;3.30;0.65;;;24.90;99.90;;;;;;4907083;29;20231;-79
2023/01/14 07:09:40;;;;;;;1.92;0.70;;;24.90;99.90;;;;;;4953426;28;20236;-80
2023/01/14 07:12:13;;;;;;;4.50;0.75;;;24.90;99.90;;;;;;4939224;29;20204;-79
2023/01/14 07:14:44;;;;;;;2.90;0.60;;;24.90;99.90;;;;;;4959043;28;20206;-79
2023/01/14 07:17:15;;;;;;;1.80;0.60;;;24.80;99.90;;;;;;4975979;28;20212;-78
2023/01/14 07:19:46;;;;;;;3.33;0.80;;;24.70;99.90;;;;;;4965857;28;20706;-79
2023/01/14 07:22:17;;;;;;;2.78;0.90;;;24.70;99.90;;;;;;4967632;28;20821;-78
2023/01/14 07:24:48;;;;;;;4.22;0.80;;;24.70;99.90;;;;;;4972872;28;20236;-81
2023/01/14 07:27:20;;;;;;;3.22;0.60;;;24.70;99.90;;;;;;4963932;28;20200;-82
2023/01/14 07:29:51;;;;;;;2.65;0.60;;;24.70;99.90;;;;;;4967740;28;20200;-81
2023/01/14 07:32:22;;;;;;;2.08;0.60;;;24.70;99.90;;;;;;4992292;28;20209;-82
2023/01/14 07:34:54;;;;;;;2.63;0.70;;;24.60;99.90;;;;;;5021888;28;20238;-79
2023/01/14 07:37:25;;;;;;;3.83;0.70;;;24.60;99.90;;;;;;5022044;28;20214;-80
2023/01/14 07:39:56;;;;;;;2.97;0.70;;;24.50;99.90;;;;;;5019315;28;20277;-78
2023/01/14 07:42:29;;;;;;;3.47;0.50;;;24.50;99.90;;;;;;5030832;28;20214;-78
2023/01/14 07:45:00;;;;;;;2.67;0.63;;;24.40;99.90;;;;;;5020664;28;20285;-81
2023/01/14 07:47:31;;;;;;;2.95;0.80;;;24.30;99.90;;;;;;5023292;28;20198;-79
2023/01/14 07:50:02;;;;;;;2.75;0.52;;;24.30;99.90;;;;;;5013615;28;20690;-82
2023/01/14 07:52:33;;;;;;;5.57;0.80;;;24.30;99.90;;;;;;5020653;28;20195;-81
2023/01/14 07:55:04;;;;;;;1.80;0.60;;;24.30;99.90;;;;;;5017656;28;20206;-81
2023/01/14 07:57:36;;;;;;;4.20;0.65;;;24.30;99.90;;;;;;5053700;28;20200;-80
2023/01/14 08:00:08;;;;;;;2.75;0.70;;;24.30;99.90;;;;;;5068495;28;20656;-80
2023/01/14 08:02:39;;;;;;;3.92;0.95;;;24.30;99.90;;;;;;5067433;28;20282;-79
2023/01/14 08:05:11;;;;;;;4.30;0.80;;;24.30;99.90;;;;;;5071053;28;20200;-78
2023/01/14 08:07:42;;;;;;;4.28;0.80;;;24.30;99.90;;;;;;5079480;28;20665;-79
2023/01/14 08:10:14;;;;;;;1.80;0.60;;;24.30;99.90;;;;;;5083101;28;20192;-80
2023/01/14 08:12:46;;;;;;;2.35;0.70;;;24.30;99.90;;;;;;5086796;28;20196;-79
2023/01/14 08:15:18;;;;;;;2.83;0.80;;;24.20;99.90;;;;;;5076144;28;20726;-80
2023/01/14 08:17:48;;;;;;;3.40;0.70;;;24.10;99.90;;;;;;5087248;28;20193;-81
2023/01/14 08:20:22;;;;;;;3.03;0.73;;;24.00;99.90;;;;;;5078359;28;20719;-80
2023/01/14 08:22:53;;;;;;;1.55;0.60;;;23.90;99.90;;;;;;5075576;28;20627;-79
2023/01/14 08:25:27;;;;;;;3.35;0.60;;;23.90;99.90;;;;;;5074577;28;20224;-82
2023/01/14 08:28:00;;;;;;;3.58;0.90;;;23.90;99.90;;;;;;5075313;28;20537;-79
2023/01/14 08:30:31;;;;;;;3.00;0.70;;;23.90;99.90;;;;;;5076141;28;20622;-80
2023/01/14 08:33:02;;;;;;;3.95;0.70;;;23.90;99.90;;;;;;5068487;28;20279;-79
2023/01/14 08:35:33;;;;;;;3.53;0.70;;;23.80;99.90;;;;;;5083700;28;20667;-81
2023/01/14 08:38:04;;;;;;;3.17;0.93;;;23.70;99.90;;;;;;5070901;28;20224;-80
2023/01/14 08:40:35;;;;;;;4.45;0.60;;;23.60;99.90;;;;;;5082465;28;20199;-80
2023/01/14 08:43:08;;;;;;;4.25;0.73;;;23.50;99.90;;;;;;5074584;28;20219;-79
2023/01/14 08:45:39;;;;;;;1.63;0.73;;;23.40;99.90;;;;;;5074411;28;20201;-80
2023/01/14 08:48:10;;;;;;;1.65;0.70;;;23.40;99.90;;;;;;5069885;28;20212;-78
2023/01/14 08:50:41;;;;;;;2.80;0.73;;;23.30;99.90;;;;;;5072094;28;20232;-80
2023/01/14 08:53:12;;;;;;;3.40;0.70;;;23.30;99.90;;;;;;5066575;28;20200;-79
2023/01/14 08:55:43;;;;;;;3.25;0.65;;;23.20;99.90;;;;;;5072682;28;20197;-80
2023/01/14 08:58:20;;;;;;;4.82;0.70;;;23.20;99.90;;;;;;5056883;28;20225;-81
2023/01/14 09:00:51;;;;;;;2.92;0.60;;;23.20;99.90;;;;;;5068607;28;20584;-77
2023/01/14 09:03:22;;;;;;;2.05;0.50;;;23.10;99.90;;;;;;5068982;28;20302;-82
2023/01/14 09:05:56;;;;;;;4.10;0.75;;;23.10;99.90;;;;;;5072850;28;20207;-80
2023/01/14 09:17:14;;;;;;;3.75;0.90;;;23.00;99.90;;;;;;5065085;28;20259;-82
2023/01/14 09:19:49;;;;;;;3.80;0.68;;;23.00;99.90;;;;;;5074196;28;20205;-79
2023/01/14 09:22:22;;;;;;;3.78;0.80;;;23.00;99.90;;;;;;5058332;28;20221;-82
2023/01/14 09:24:55;;;;;;;3.90;1.00;;;22.90;99.90;;;;;;5060549;28;20264;-87
2023/01/14 09:27:27;;;;;;;2.38;0.70;;;22.90;99.90;;;;;;5074015;28;20205;-79
2023/01/14 09:30:00;;;;;;;3.20;0.80;;;22.90;99.90;;;;;;5065748;28;20201;-81
2023/01/14 09:32:39;;;;;;;3.50;0.80;;;22.90;99.90;;;;;;5067829;28;20291;-80
2023/01/14 09:35:10;;;;;;;2.63;0.70;;;22.90;99.90;;;;;;5064899;28;20288;-84
2023/01/14 09:37:42;;;;;;;2.20;0.70;;;22.90;99.90;;;;;;5071005;28;20219;-78
2023/01/14 09:40:13;;;;;;;4.57;0.80;;;22.90;99.90;;;;;;5075021;28;20200;-78
2023/01/14 09:42:47;;;;;;;4.03;0.90;;;22.80;99.90;;;;;;5067052;28;20217;-80
2023/01/14 09:45:29;;;;;;;3.75;0.70;;;22.90;99.90;;;;;;5058666;28;20277;-81
2023/01/14 09:48:06;;;;;;;3.47;0.90;;;22.90;99.90;;;;;;5072315;28;20200;-79
2023/01/14 09:50:47;;;;;;;2.63;0.70;;;22.80;99.90;;;;;;5073170;28;20197;-79
2023/01/14 09:53:29;;;;;;;3.35;0.70;;;22.90;99.90;;;;;;5067747;28;20671;-81
2023/01/14 09:56:07;;;;;;;5.28;1.00;;;22.80;99.90;;;;;;5069322;28;20267;-80
2023/01/14 09:58:41;;;;;;;3.40;0.80;;;22.80;99.90;;;;;;5071544;28;20551;-78
2023/01/14 10:01:20;;;;;;;2.33;0.75;;;22.80;99.90;;;;;;5065510;28;20630;-82
2023/01/14 10:03:59;;;;;;;4.68;0.90;;;22.80;99.90;;;;;;5069846;28;20216;-80
2023/01/14 10:06:30;;;;;;;2.75;0.90;;;22.70;99.90;;;;;;5076079;28;21891;-77
2023/01/14 10:09:06;;;;;;;4.55;1.00;;;22.70;99.90;;;;;;5069584;28;20189;-85
2023/01/14 10:11:40;;;;;;;4.20;1.00;;;22.70;99.90;;;;;;5073921;28;20238;-81
2023/01/14 10:14:16;;;;;;;2.33;0.73;;;22.70;99.90;;;;;;5070700;28;20280;-82
2023/01/14 10:16:54;;;;;;;5.57;0.90;;;22.70;99.90;;;;;;5071254;28;20198;-79
2023/01/14 10:19:32;;;;;;;5.50;1.23;;;22.70;99.90;;;;;;5070968;28;20218;-81
2023/01/14 10:22:07;;;;;;;1.95;0.95;;;22.70;99.90;;;;;;5074035;28;20304;-82
2023/01/14 10:24:44;;;;;;;3.22;0.75;;;22.70;99.90;;;;;;5087355;28;20577;-82
2023/01/14 10:27:18;;;;;;;4.45;0.90;;;22.70;99.90;;;;;;5070154;28;20194;-82
2023/01/14 10:29:49;;;;;;;5.35;0.90;;;22.70;99.90;;;;;;5072626;28;20214;-80
2023/01/14 10:32:24;;;;;;;3.30;0.80;;;22.70;99.90;;;;;;5070241;28;20197;-82
2023/01/14 10:34:57;;;;;;;5.32;0.93;;;22.70;99.90;;;;;;5064442;28;20219;-81
2023/01/14 10:37:28;;;;;;;1.85;0.73;;;22.70;99.90;;;;;;5062106;28;20238;-85
2023/01/14 10:40:01;;;;;;;2.80;0.80;;;22.70;99.90;;;;;;5069365;28;20632;-83
2023/01/14 10:42:32;;;;;;;6.10;1.05;;;22.70;99.90;;;;;;5064437;28;20589;-85
2023/01/14 10:45:03;;;;;;;3.60;0.90;;;22.70;99.90;;;;;;5069565;28;22080;-85
2023/01/14 10:47:37;;;;;;;5.47;0.95;;;22.70;99.90;;;;;;5071069;28;20200;-90
2023/01/14 10:50:20;;;;;;;4.13;0.90;;;22.60;99.90;;;;;;5060796;28;20197;-80
2023/01/14 10:52:52;;;;;;;3.22;0.80;;;22.60;99.90;;;;;;5067396;28;20189;-81
2023/01/14 10:55:28;;;;;;;4.95;1.30;;;22.60;99.90;;;;;;5067049;28;20204;-82
2023/01/14 10:58:07;;;;;;;3.08;0.75;;;22.60;99.90;;;;;;5070729;28;20643;-81
2023/01/14 11:00:40;;;;;;;4.82;1.00;;;22.60;99.90;;;;;;5072659;28;20207;-81
2023/01/14 11:03:21;;;;;;;6.55;1.02;;;22.60;99.90;;;;;;5067493;28;20242;-82
2023/01/14 11:05:58;;;;;;;3.30;0.80;;;22.60;99.90;;;;;;5069540;28;20326;-79
2023/01/14 11:08:36;;;;;;;5.32;1.00;;;22.60;99.90;;;;;;5071411;28;20200;-81
2023/01/14 11:11:10;;;;;;;2.92;0.80;;;22.60;99.90;;;;;;5065893;28;20557;-82
2023/01/14 11:13:44;;;;;;;4.43;1.20;;;22.60;99.90;;;;;;5066938;28;20205;-80
2023/01/14 11:16:36;;;;;;;4.80;1.10;;;22.60;99.90;;;;;;5070358;28;20203;-82
2023/01/14 11:19:22;;;;;;;4.25;0.93;;;22.60;99.90;;;;;;5063511;28;20572;-82
2023/01/14 11:21:54;;;;;;;5.10;0.80;;;22.60;99.90;;;;;;5070204;28;20197;-81
2023/01/14 11:24:30;;;;;;;3.53;0.90;;;22.60;99.90;;;;;;5063752;28;20697;-81
2023/01/14 11:27:06;;;;;;;4.75;1.00;;;22.60;99.90;;;;;;5068948;28;20197;-83
2023/01/14 11:29:39;;;;;;;2.83;0.63;;;22.60;99.90;;;;;;5066456;28;20240;-83
2023/01/14 11:32:12;;;;;;;5.32;1.00;;;22.50;99.90;;;;;;5062979;28;20209;-81
2023/01/14 11:34:49;;;;;;;5.05;0.80;;;22.60;99.90;;;;;;5070489;28;20704;-80
2023/01/14 11:37:22;;;;;;;4.18;1.00;;;22.50;99.90;;;;;;5065019;28;20234;-82
2023/01/14 11:39:55;;;;;;;5.38;0.90;;;22.60;99.90;;;;;;5069477;28;20763;-82
2023/01/14 11:42:37;;;;;;;3.22;0.88;;;22.50;99.90;;;;;;5079385;28;20209;-80
2023/01/14 11:45:19;;;;;;;4.13;0.93;;;22.50;99.90;;;;;;5071029;28;20722;-80
2023/01/14 11:47:51;;;;;;;2.83;0.82;;;22.50;99.90;;;;;;5051156;28;20200;-81
2023/01/14 11:50:26;;;;;;;2.78;0.77;;;22.50;99.90;;;;;;5070083;28;20268;-83
2023/01/14 11:53:06;;;;;;;3.53;0.80;;;22.50;99.90;;;;;;5072471;28;20199;-83
2023/01/14 11:55:39;;;;;;;5.82;0.77;;;22.40;99.90;;;;;;5072233;28;20279;-83
2023/01/14 11:58:19;;;;;;;1.48;0.77;;;22.40;99.90;;;;;;5063835;28;20204;-79
2023/01/14 12:00:54;;;;;;;4.82;0.93;;;22.40;99.90;;;;;;5072810;28;20649;-82
2023/01/14 12:03:37;;;;;;;3.33;0.88;;;22.40;99.90;;;;;;5075357;28;20220;-82
2023/01/14 12:06:15;;;;;;;2.35;0.70;;;22.40;99.90;;;;;;5075607;28;20189;-81
2023/01/14 12:08:48;;;;;;;13.15;1.25;;;22.40;99.90;;;;;;5073887;28;20200;-82
2023/01/14 12:11:22;;;;;;;4.85;0.90;;;22.40;99.90;;;;;;5084243;28;20195;-82
2023/01/14 12:16:53;;;;;;;2.60;0.80;;;22.40;99.90;;;;;;5073294;28;20645;-82
2023/01/14 12:19:30;;;;;;;2.58;0.90;;;22.30;99.90;;;;;;5075383;28;20224;-87
2023/01/14 12:22:12;;;;;;;3.30;0.88;;;22.40;99.90;;;;;;5075926;28;20199;-83
2023/01/14 12:24:59;;;;;;;4.57;0.80;;;22.40;99.90;;;;;;5075410;28;20272;-85
2023/01/14 12:27:47;;;;;;;3.10;0.90;;;22.30;99.90;;;;;;5075288;28;20242;-82
2023/01/14 12:30:32;;;;;;;7.05;0.93;;;22.40;99.90;;;;;;5075003;28;20185;-82
2023/01/14 12:33:08;;;;;;;4.43;0.98;;;22.40;99.90;;;;;;5055323;28;20622;-82
2023/01/14 12:35:45;;;;;;;3.38;0.88;;;22.30;99.90;;;;;;5055118;28;20193;-83
2023/01/14 12:47:08;;;;;;;6.70;0.85;;;22.30;99.90;;;;;;5033194;28;20688;-87
2023/01/14 12:49:41;;;;;;;2.65;0.90;;;22.30;99.90;;;;;;5066236;28;20580;-83
2023/01/14 12:52:13;;;;;;;3.63;0.90;;;22.30;99.90;;;;;;5075010;28;20185;-83
2023/01/14 12:54:46;;;;;;;2.78;1.00;;;22.30;99.90;;;;;;5074880;28;20280;-83
2023/01/14 12:57:24;;;;;;;6.22;1.15;;;22.20;99.90;;;;;;5074297;28;20189;-82
2023/01/14 13:00:04;;;;;;;6.13;0.88;;;22.20;99.90;;;;;;5074887;28;20193;-82
2023/01/14 13:02:38;;;;;;;3.13;0.85;;;22.20;99.90;;;;;;5074805;28;20640;-82
2023/01/14 13:05:12;;;;;;;5.68;0.98;;;22.20;99.90;;;;;;5066860;28;20280;-83
2023/01/14 13:07:50;;;;;;;3.28;0.98;;;22.20;99.90;;;;;;5054623;28;20185;-83
2023/01/14 13:10:32;;;;;;;3.67;0.80;;;22.10;99.90;;;;;;5054667;28;20197;-83
2023/01/14 13:13:05;;;;;;;2.38;0.70;;;22.10;99.90;;;;;;5064894;28;20204;-82
2023/01/14 13:15:38;;;;;;;4.07;0.82;;;22.00;99.90;;;;;;5074615;28;20280;-84
2023/01/14 13:18:31;;;;;;;3.65;1.00;;;22.00;99.90;;;;;;5074262;28;20189;-84
2023/01/14 13:21:02;;;;;;;4.13;1.30;;;22.00;99.90;;;;;;5062998;28;20196;-82
2023/01/14 13:24:01;;;;;;;5.57;1.05;;;22.00;99.90;;;;;;5072871;28;20208;-82
2023/01/14 13:26:59;;;;;;;1.25;0.80;;;22.00;99.90;;;;;;5077167;28;20192;-82
2023/01/14 13:29:32;;;;;;;6.25;0.88;;;21.90;99.90;;;;;;5074146;28;20193;-82
2023/01/14 13:32:04;;;;;;;3.03;0.68;;;21.90;99.90;;;;;;5060959;28;20201;-82
2023/01/14 13:34:39;;;;;;;3.60;0.80;;;21.90;99.90;;;;;;5061755;28;20196;-83
2023/01/14 13:37:32;;;;;;;1.85;0.85;;;21.90;99.90;;;;;;5063650;28;20216;-83
2023/01/14 13:40:05;;;;;;;4.00;1.17;;;21.80;99.90;;;;;;5059584;28;20201;-82
2023/01/14 13:42:40;;;;;;;5.85;1.10;;;21.80;99.90;;;;;;5053918;28;20703;-82
2023/01/14 13:45:27;;;;;;;3.95;0.82;;;21.80;99.90;;;;;;5053935;28;20247;-83
2023/01/14 13:48:00;;;;;;;3.75;0.80;;;21.80;99.90;;;;;;5054039;28;20247;-83
2023/01/14 13:50:33;;;;;;;5.95;0.95;;;21.70;99.90;;;;;;5053796;28;20200;-82
2023/01/14 13:53:09;;;;;;;3.40;0.80;;;21.70;99.90;;;;;;5060591;28;20224;-82
2023/01/14 13:55:40;;;;;;;3.65;0.88;;;21.70;99.90;;;;;;5070606;28;20201;-82
2023/01/14 13:58:22;;;;;;;4.63;0.90;;;21.70;99.90;;;;;;5053852;28;20203;-82
2023/01/14 14:01:24;;;;;;;3.45;0.70;;;21.70;99.90;;;;;;5053795;28;20196;-82
2023/01/14 14:03:55;;;;;;;2.92;0.68;;;21.60;99.90;;;;;;5053501;28;20613;-83
2023/01/14 14:06:46;;;;;;;2.58;0.70;;;21.60;99.90;;;;;;5057643;28;20267;-82
2023/01/14 14:09:31;;;;;;;2.08;0.70;;;21.60;99.90;;;;;;5053343;28;20285;-83
2023/01/14 14:14:03;;;;;;;2.65;0.70;;;21.60;99.90;;;;;;5068056;28;20195;-83
2023/01/14 14:15:23;;;;;;;1.92;0.60;;;21.60;99.90;;;;;;5090744;28;20196;-84
2023/01/14 14:17:58;;;;;;;1.58;0.50;;;21.60;99.90;;;;;;5080975;28;20558;-83
2023/01/14 14:20:37;;;;;;;4.40;0.70;;;21.50;99.90;;;;;;5073347;28;20189;-83
2023/01/14 14:23:09;;;;;;;3.63;0.77;;;21.50;99.90;;;;;;5072816;28;20740;-83
2023/01/14 14:25:42;;;;;;;5.45;0.73;;;21.50;99.90;;;;;;5072810;28;20339;-83
2023/01/14 14:28:20;;;;;;;1.10;0.60;;;21.50;99.90;;;;;;5073300;28;20280;-83
2023/01/14 14:30:58;;;;;;;4.95;0.77;;;21.50;99.90;;;;;;5060253;28;20335;-83
2023/01/14 14:33:40;;;;;;;4.30;0.70;;;21.40;99.90;;;;;;5053019;28;20201;-84
2023/01/14 14:36:16;;;;;;;6.05;0.80;;;21.40;99.90;;;;;;5068484;28;20197;-83
2023/01/14 14:38:53;;;;;;;3.88;0.70;;;21.40;99.90;;;;;;5073692;28;20193;-82
2023/01/14 14:41:27;;;;;;;4.45;0.85;;;21.40;99.90;;;;;;5067284;28;20202;-82
2023/01/14 14:44:02;;;;;;;1.35;0.60;;;21.40;99.90;;;;;;5077017;28;20569;-84
2023/01/14 14:46:35;;;;;;;3.63;0.85;;;21.40;99.90;;;;;;5070632;28;20201;-85
2023/01/14 14:49:23;;;;;;;2.95;0.70;;;21.30;99.90;;;;;;5053002;28;20659;-83
2023/01/14 14:51:55;;;;;;;4.18;0.80;;;21.30;99.90;;;;;;5052857;28;20213;-83
2023/01/14 14:54:32;;;;;;;1.15;0.75;;;21.30;99.90;;;;;;5052942;28;20193;-83
2023/01/14 14:57:06;;;;;;;2.75;0.77;;;21.30;99.90;;;;;;5059028;28;20635;-83
2023/01/14 14:59:40;;;;;;;5.15;0.85;;;21.20;99.90;;;;;;5083169;28;20200;-84
2023/01/14 15:02:24;;;;;;;3.83;0.70;;;21.20;99.90;;;;;;5072943;28;20667;-83
2023/01/14 15:04:57;;;;;;;2.17;0.70;;;21.20;99.90;;;;;;5058906;28;20216;-83
2023/01/14 15:07:29;;;;;;;0.98;0.60;;;21.20;99.90;;;;;;5052599;28;20190;-84